Time;durP1;ratioP1;P1;durP2;ratioP2;P2;SDS_P1;SDS_P2;PMS_P1;PMS_P2;Temp;Humidity;BMP_temperature;BMP_pressure;BME280_temperature;BME280_humidity;BME280_pressure;Samples;Min_cycle;Max_cycle;Signal;HPM_P1;HPM_P2
2023/11/20 00:01:56;;;;;;;42.60;6.45;;;11.70;99.90;;;;;;4993778;28;20501;-78
2023/11/20 00:04:22;;;;;;;23.15;4.38;;;11.70;99.90;;;;;;4992801;28;20046;-78
2023/11/20 00:06:49;;;;;;;33.65;4.93;;;11.70;99.90;;;;;;4974836;28;20047;-77
2023/11/20 00:09:15;;;;;;;28.60;5.38;;;11.70;99.90;;;;;;4970098;28;20477;-77
2023/11/20 00:11:42;;;;;;;39.50;6.03;;;11.70;99.90;;;;;;4990430;28;20038;-77
2023/11/20 00:14:08;;;;;;;22.15;4.03;;;11.70;99.90;;;;;;4995886;28;20760;-77
2023/11/20 00:16:34;;;;;;;29.42;5.18;;;11.70;99.90;;;;;;4976030;28;20061;-77
2023/11/20 00:19:03;;;;;;;31.42;6.18;;;11.70;99.90;;;;;;5003909;28;20037;-77
2023/11/20 00:21:31;;;;;;;27.85;5.40;;;11.70;99.90;;;;;;4989864;28;20044;-78
2023/11/20 00:23:58;;;;;;;25.80;4.80;;;11.70;99.90;;;;;;4992356;28;20559;-78
2023/11/20 00:26:25;;;;;;;38.95;5.97;;;11.70;99.90;;;;;;4992333;28;20044;-77
2023/11/20 00:29:00;;;;;;;30.05;5.45;;;11.70;99.90;;;;;;4977748;28;20461;-78
2023/11/20 00:31:26;;;;;;;21.05;4.50;;;11.60;99.90;;;;;;4992174;28;20037;-78
2023/11/20 00:33:53;;;;;;;26.17;5.00;;;11.60;99.90;;;;;;4963450;28;20057;-77
2023/11/20 00:36:19;;;;;;;22.38;4.15;;;11.60;99.90;;;;;;4990202;28;20037;-79
2023/11/20 00:38:45;;;;;;;24.48;4.78;;;11.60;99.90;;;;;;5000697;28;20527;-77
2023/11/20 00:41:12;;;;;;;36.92;7.05;;;11.60;99.90;;;;;;4993984;28;20034;-77
2023/11/20 00:43:39;;;;;;;23.10;5.85;;;11.60;99.90;;;;;;4992343;28;20037;-77
2023/11/20 00:46:06;;;;;;;27.80;5.70;;;11.60;99.90;;;;;;4972368;28;20038;-78
2023/11/20 00:48:32;;;;;;;33.17;7.30;;;11.60;99.90;;;;;;4974128;28;20042;-78
2023/11/20 00:50:59;;;;;;;39.55;7.32;;;11.60;99.90;;;;;;4971664;28;20048;-77
2023/11/20 00:53:25;;;;;;;26.73;5.70;;;11.60;99.90;;;;;;4977921;28;20034;-78
2023/11/20 00:55:51;;;;;;;23.80;5.78;;;11.60;99.90;;;;;;4986873;28;20674;-77
2023/11/20 00:58:18;;;;;;;22.83;6.18;;;11.60;99.90;;;;;;4993192;28;20040;-77
2023/11/20 01:00:44;;;;;;;18.80;5.10;;;11.60;99.90;;;;;;4985368;28;20052;-77
2023/11/20 01:03:10;;;;;;;15.05;5.00;;;11.60;99.90;;;;;;4994847;28;20037;-77
2023/11/20 01:05:37;;;;;;;22.35;6.53;;;11.60;99.90;;;;;;4977644;28;20050;-77
2023/11/20 01:08:03;;;;;;;17.40;5.15;;;11.50;99.90;;;;;;4960918;28;20052;-78
2023/11/20 01:10:31;;;;;;;21.92;5.68;;;11.50;99.90;;;;;;4979190;28;20041;-77
2023/11/20 01:12:57;;;;;;;21.65;5.57;;;11.50;99.90;;;;;;4996152;28;20045;-78
2023/11/20 01:15:25;;;;;;;15.13;3.90;;;11.60;99.90;;;;;;4996321;28;20064;-78
2023/11/20 01:17:51;;;;;;;22.73;4.78;;;11.50;99.90;;;;;;4980142;28;20037;-77
2023/11/20 01:20:18;;;;;;;15.27;4.53;;;11.50;99.90;;;;;;5013122;28;20503;-77
2023/11/20 01:22:44;;;;;;;24.05;5.55;;;11.50;99.90;;;;;;4997466;28;20551;-77
2023/11/20 01:25:10;;;;;;;23.35;5.63;;;11.50;99.90;;;;;;4997640;28;20041;-77
2023/11/20 01:27:37;;;;;;;17.77;4.28;;;11.50;99.90;;;;;;4994653;28;20046;-77
2023/11/20 01:30:05;;;;;;;25.42;6.50;;;11.50;99.90;;;;;;4997708;28;20041;-77
2023/11/20 01:32:31;;;;;;;19.92;5.45;;;11.50;99.90;;;;;;4978548;28;20037;-77
2023/11/20 01:34:57;;;;;;;17.67;4.43;;;11.50;99.90;;;;;;4958341;28;20041;-78
2023/11/20 01:37:24;;;;;;;17.63;5.22;;;11.40;99.90;;;;;;4976751;28;21136;-78
2023/11/20 01:39:50;;;;;;;31.85;7.10;;;11.40;99.90;;;;;;4978971;28;20041;-78
2023/11/20 01:42:16;;;;;;;14.85;4.75;;;11.50;99.90;;;;;;4977656;28;20046;-78
2023/11/20 01:44:43;;;;;;;17.42;4.97;;;11.40;99.90;;;;;;4964808;28;20034;-78
2023/11/20 01:47:11;;;;;;;15.95;5.00;;;11.40;99.90;;;;;;5008533;28;20038;-78
2023/11/20 01:49:39;;;;;;;19.90;5.38;;;11.40;99.90;;;;;;4959431;28;20025;-79
2023/11/20 01:52:06;;;;;;;31.08;7.72;;;11.40;99.90;;;;;;4997090;28;20041;-79
2023/11/20 01:54:33;;;;;;;19.27;5.43;;;11.40;99.90;;;;;;4997379;28;20037;-77
2023/11/20 01:57:00;;;;;;;19.17;4.80;;;11.50;99.90;;;;;;4992622;28;21010;-77
2023/11/20 01:59:27;;;;;;;15.60;4.70;;;11.40;99.90;;;;;;4971356;28;20038;-77
2023/11/20 02:01:55;;;;;;;21.13;6.03;;;11.40;99.90;;;;;;4978285;28;20034;-78
2023/11/20 02:04:23;;;;;;;35.42;7.70;;;11.40;99.90;;;;;;4992807;28;20045;-78
2023/11/20 02:06:50;;;;;;;17.95;5.32;;;11.40;99.90;;;;;;4996252;28;20030;-79
2023/11/20 02:09:17;;;;;;;20.33;5.43;;;11.40;99.90;;;;;;5004525;28;20988;-79
2023/11/20 02:11:49;;;;;;;29.83;7.32;;;11.40;99.90;;;;;;4978637;28;20492;-78
2023/11/20 02:14:17;;;;;;;22.90;5.45;;;11.40;99.90;;;;;;4995349;28;20034;-78
2023/11/20 02:16:44;;;;;;;20.92;5.22;;;11.40;99.90;;;;;;4970462;28;20469;-78
2023/11/20 02:19:14;;;;;;;27.58;6.13;;;11.40;99.90;;;;;;4981017;28;20034;-78
2023/11/20 02:21:42;;;;;;;26.67;5.13;;;11.40;99.90;;;;;;4979216;28;20045;-78
2023/11/20 02:24:10;;;;;;;31.90;4.55;;;11.30;99.90;;;;;;4998250;28;20124;-78
2023/11/20 02:27:20;;;;;;;23.65;4.05;;;11.40;99.90;;;;;;5006352;28;20045;-78
2023/11/20 02:29:54;;;;;;;25.42;5.35;;;11.30;99.90;;;;;;4972720;28;20038;-78
2023/11/20 02:32:21;;;;;;;31.48;5.00;;;11.30;99.90;;;;;;4996541;28;20401;-78
2023/11/20 02:34:51;;;;;;;27.13;5.35;;;11.30;99.90;;;;;;4987124;28;20108;-79
2023/11/20 02:37:17;;;;;;;29.38;4.63;;;11.20;99.90;;;;;;4973461;28;20041;-77
2023/11/20 02:39:48;;;;;;;32.55;4.75;;;11.30;99.90;;;;;;4994163;28;20729;-78
2023/11/20 02:42:15;;;;;;;22.38;3.67;;;11.30;99.90;;;;;;4991595;28;20037;-77
2023/11/20 02:44:43;;;;;;;21.42;3.67;;;11.20;99.90;;;;;;4978243;28;20029;-78
2023/11/20 02:47:09;;;;;;;16.27;3.40;;;11.20;99.90;;;;;;4994324;28;20076;-77
2023/11/20 02:49:36;;;;;;;22.83;3.40;;;11.20;99.90;;;;;;4996661;28;21133;-77
2023/11/20 02:52:03;;;;;;;19.25;2.90;;;11.20;99.90;;;;;;4978406;28;20034;-78
2023/11/20 02:54:31;;;;;;;28.63;3.38;;;11.20;99.90;;;;;;4976043;28;20037;-78
2023/11/20 02:56:57;;;;;;;25.95;4.03;;;11.20;99.90;;;;;;4995452;28;20040;-77
2023/11/20 02:59:23;;;;;;;22.63;2.80;;;11.10;99.90;;;;;;5007998;28;20037;-79
2023/11/20 03:01:50;;;;;;;26.55;3.70;;;11.10;99.90;;;;;;4960571;28;20041;-78
2023/11/20 03:04:18;;;;;;;21.92;3.83;;;11.10;99.90;;;;;;4998048;28;20046;-79
2023/11/20 03:06:47;;;;;;;18.38;2.33;;;11.10;99.90;;;;;;4976149;28;20393;-79
2023/11/20 03:09:13;;;;;;;17.40;2.40;;;11.10;99.90;;;;;;4976725;28;20482;-79
2023/11/20 03:11:39;;;;;;;21.15;2.78;;;11.10;99.90;;;;;;4992242;28;20575;-77
2023/11/20 03:14:06;;;;;;;13.27;2.53;;;11.10;99.90;;;;;;4992076;28;20041;-79
2023/11/20 03:16:32;;;;;;;16.05;3.28;;;11.10;99.90;;;;;;5002577;28;20042;-78
2023/11/20 03:18:59;;;;;;;20.60;3.38;;;11.10;99.90;;;;;;4977186;28;20513;-78
2023/11/20 03:21:27;;;;;;;27.85;4.15;;;11.10;99.90;;;;;;4970835;28;20048;-78
2023/11/20 03:23:56;;;;;;;17.67;2.85;;;11.10;99.90;;;;;;4975066;28;20501;-79
2023/11/20 03:26:24;;;;;;;16.17;3.60;;;11.00;99.90;;;;;;4993125;28;20040;-77
2023/11/20 03:28:50;;;;;;;14.20;3.38;;;11.00;99.90;;;;;;4994849;28;20022;-78
2023/11/20 03:31:17;;;;;;;16.45;3.63;;;11.00;99.90;;;;;;4996411;28;20263;-77
2023/11/20 03:33:46;;;;;;;16.25;3.80;;;11.00;99.90;;;;;;4996846;28;20029;-77
2023/11/20 03:36:14;;;;;;;15.52;3.40;;;11.00;99.90;;;;;;4970272;28;20038;-78
2023/11/20 03:38:41;;;;;;;24.98;4.68;;;11.10;99.90;;;;;;4990705;28;20424;-78
2023/11/20 03:41:08;;;;;;;22.95;5.63;;;11.10;99.90;;;;;;4994327;28;20389;-78
2023/11/20 03:43:35;;;;;;;15.43;4.85;;;11.00;99.90;;;;;;4994613;28;20030;-78
2023/11/20 03:46:01;;;;;;;20.15;4.20;;;11.00;99.90;;;;;;4991648;28;20401;-77
2023/11/20 03:48:27;;;;;;;21.40;4.22;;;11.00;99.90;;;;;;4996260;28;20572;-78
2023/11/20 03:50:54;;;;;;;14.75;3.95;;;11.00;99.90;;;;;;4978916;28;20042;-79
2023/11/20 03:53:21;;;;;;;31.50;5.40;;;11.00;99.90;;;;;;4968472;28;20025;-80
2023/11/20 03:55:47;;;;;;;26.73;3.80;;;11.10;99.90;;;;;;4995287;28;20030;-77
2023/11/20 03:58:13;;;;;;;19.98;4.15;;;11.00;99.90;;;;;;4978655;28;20038;-79
2023/11/20 04:00:39;;;;;;;24.92;3.63;;;11.00;99.90;;;;;;4995790;28;20080;-79
2023/11/20 04:03:06;;;;;;;18.02;4.13;;;11.10;99.90;;;;;;4962901;28;20033;-79
2023/11/20 04:05:32;;;;;;;12.43;2.55;;;11.00;99.90;;;;;;4995330;28;20041;-80
2023/11/20 04:07:58;;;;;;;27.60;4.57;;;11.00;99.90;;;;;;4977523;28;20036;-79
2023/11/20 04:10:25;;;;;;;30.08;4.25;;;11.00;99.90;;;;;;4993821;28;20500;-79
2023/11/20 04:12:51;;;;;;;24.75;3.22;;;11.00;99.90;;;;;;4959478;28;20040;-79
2023/11/20 04:15:18;;;;;;;27.30;3.92;;;11.00;99.90;;;;;;4975163;28;20068;-78
2023/11/20 04:17:45;;;;;;;33.03;3.38;;;11.00;99.90;;;;;;4992866;28;20045;-79
2023/11/20 04:20:12;;;;;;;25.50;3.47;;;11.00;99.90;;;;;;4977776;28;20519;-80
2023/11/20 04:22:39;;;;;;;17.98;2.47;;;11.00;99.90;;;;;;4992480;28;20033;-80
2023/11/20 04:25:06;;;;;;;25.85;3.67;;;11.00;99.90;;;;;;4972946;28;20060;-79
2023/11/20 04:27:34;;;;;;;22.17;3.47;;;11.00;99.90;;;;;;4975448;28;20374;-78
2023/11/20 04:30:00;;;;;;;23.45;2.83;;;11.00;99.90;;;;;;5011098;28;20034;-79
2023/11/20 04:32:27;;;;;;;17.58;2.00;;;10.90;99.90;;;;;;4988391;28;20038;-79
2023/11/20 04:34:53;;;;;;;24.48;3.30;;;10.90;99.90;;;;;;4997008;28;20061;-79
2023/11/20 04:37:20;;;;;;;23.00;3.05;;;10.90;99.90;;;;;;4976392;28;20038;-78
2023/11/20 04:39:46;;;;;;;25.00;2.83;;;10.90;99.90;;;;;;4995390;28;20045;-79
2023/11/20 04:42:13;;;;;;;19.17;3.03;;;10.90;99.90;;;;;;4992784;28;20404;-79
2023/11/20 04:44:39;;;;;;;21.02;3.10;;;10.90;99.90;;;;;;4992835;28;20029;-78
2023/11/20 04:47:06;;;;;;;31.88;3.20;;;10.90;99.90;;;;;;4973878;28;20664;-79
2023/11/20 04:49:32;;;;;;;31.48;4.15;;;10.90;99.90;;;;;;4975743;28;20044;-79
2023/11/20 04:51:59;;;;;;;22.38;3.33;;;10.90;99.90;;;;;;4989006;28;20131;-79
2023/11/20 04:54:25;;;;;;;22.73;2.25;;;10.90;99.90;;;;;;4990392;28;20041;-80
2023/11/20 04:56:51;;;;;;;13.90;1.45;;;10.90;99.90;;;;;;4990226;28;20397;-79
2023/11/20 04:59:17;;;;;;;25.08;2.58;;;10.90;99.90;;;;;;4982974;28;20053;-79
2023/11/20 05:01:44;;;;;;;22.70;2.67;;;10.90;99.90;;;;;;4994325;28;20034;-80
2023/11/20 05:04:10;;;;;;;25.13;2.83;;;10.90;99.90;;;;;;4991830;28;20037;-80
2023/11/20 05:06:36;;;;;;;22.50;3.92;;;10.80;99.90;;;;;;4976108;28;20038;-79
2023/11/20 05:09:03;;;;;;;25.60;2.58;;;10.80;99.90;;;;;;4992305;28;20559;-79
2023/11/20 05:11:29;;;;;;;20.17;2.28;;;10.80;99.90;;;;;;4974081;28;20038;-79
2023/11/20 05:13:58;;;;;;;19.42;2.80;;;10.80;99.90;;;;;;4960332;28;20048;-80
2023/11/20 05:16:28;;;;;;;24.30;3.58;;;10.80;99.90;;;;;;4974587;28;20475;-78
2023/11/20 05:18:55;;;;;;;22.42;3.47;;;10.80;99.90;;;;;;4968558;28;20485;-80
2023/11/20 05:21:22;;;;;;;17.42;2.45;;;10.80;99.90;;;;;;4992301;28;20033;-80
2023/11/20 05:23:49;;;;;;;13.63;2.42;;;10.80;99.90;;;;;;4995116;28;20034;-81
2023/11/20 05:26:18;;;;;;;19.30;2.38;;;10.70;99.90;;;;;;4987771;28;20049;-79
2023/11/20 05:28:45;;;;;;;16.23;2.03;;;10.80;99.90;;;;;;4984274;28;20404;-80
2023/11/20 05:31:11;;;;;;;20.52;2.85;;;10.80;99.90;;;;;;4975153;28;20037;-81
2023/11/20 05:33:38;;;;;;;16.90;2.55;;;10.80;99.90;;;;;;4991640;28;20041;-79
2023/11/20 05:36:05;;;;;;;15.70;2.25;;;10.80;99.90;;;;;;4972500;28;20046;-79
2023/11/20 05:38:31;;;;;;;20.73;2.85;;;10.80;99.90;;;;;;4993052;28;20041;-79
2023/11/20 05:40:58;;;;;;;24.65;2.75;;;10.80;99.90;;;;;;4992531;28;20052;-79
2023/11/20 05:43:25;;;;;;;18.38;2.70;;;10.70;99.90;;;;;;4993363;28;20029;-79
2023/11/20 05:45:51;;;;;;;17.83;3.20;;;10.80;99.90;;;;;;4991265;28;20281;-80
2023/11/20 05:48:17;;;;;;;22.95;2.92;;;10.80;99.90;;;;;;4992187;28;20038;-79
2023/11/20 05:50:44;;;;;;;21.50;3.33;;;10.70;99.90;;;;;;4994373;28;20037;-80
2023/11/20 05:53:10;;;;;;;16.23;2.28;;;10.70;99.90;;;;;;4996214;28;20424;-80
2023/11/20 05:55:37;;;;;;;19.15;2.33;;;10.70;99.90;;;;;;4964530;28;20388;-80
2023/11/20 05:58:03;;;;;;;22.00;3.40;;;10.70;99.90;;;;;;4999131;28;20504;-80
2023/11/20 06:00:31;;;;;;;24.08;3.42;;;10.70;99.90;;;;;;4980381;28;20046;-81
2023/11/20 06:02:59;;;;;;;20.10;3.38;;;10.70;99.90;;;;;;4993030;28;20049;-81
2023/11/20 06:05:25;;;;;;;32.85;4.68;;;10.80;99.90;;;;;;4994654;28;20029;-80
2023/11/20 06:07:51;;;;;;;21.17;3.50;;;10.70;99.90;;;;;;4996042;28;20045;-79
2023/11/20 06:10:18;;;;;;;26.85;2.67;;;10.70;99.90;;;;;;4977472;28;20380;-81
2023/11/20 06:12:45;;;;;;;20.48;2.28;;;10.70;99.90;;;;;;4995827;28;20034;-80
2023/11/20 06:15:11;;;;;;;20.92;3.50;;;10.60;99.90;;;;;;4995972;28;20041;-80
2023/11/20 06:17:38;;;;;;;24.52;3.75;;;10.70;99.90;;;;;;4978595;28;20050;-81
2023/11/20 06:20:08;;;;;;;24.77;3.08;;;10.60;99.90;;;;;;4994479;28;20030;-81
2023/11/20 06:22:35;;;;;;;23.50;3.80;;;10.60;99.90;;;;;;4990604;28;20061;-80
2023/11/20 06:25:02;;;;;;;23.85;3.60;;;10.60;99.90;;;;;;4997803;28;20118;-82
2023/11/20 06:27:30;;;;;;;26.05;4.07;;;10.60;99.90;;;;;;4988699;28;20042;-78
2023/11/20 06:29:56;;;;;;;24.33;3.35;;;10.60;99.90;;;;;;4998642;28;20559;-80
2023/11/20 06:32:23;;;;;;;22.52;3.03;;;10.60;99.90;;;;;;4998151;28;20026;-81
2023/11/20 06:34:50;;;;;;;17.17;2.60;;;10.50;99.90;;;;;;4963288;28;20665;-79
2023/11/20 06:37:17;;;;;;;34.22;3.95;;;10.50;99.90;;;;;;4972152;28;20033;-79
2023/11/20 06:39:43;;;;;;;30.35;3.08;;;10.50;99.90;;;;;;4963230;28;20061;-80
2023/11/20 06:42:10;;;;;;;17.15;2.22;;;10.50;99.90;;;;;;4977880;28;20044;-81
2023/11/20 06:44:40;;;;;;;19.63;3.35;;;10.40;99.90;;;;;;4994411;28;20038;-79
2023/11/20 06:47:07;;;;;;;28.88;3.13;;;10.30;99.90;;;;;;4997011;28;20037;-79
2023/11/20 06:49:35;;;;;;;21.90;3.03;;;10.40;99.90;;;;;;4977024;28;20038;-79
2023/11/20 06:52:01;;;;;;;20.60;2.53;;;10.40;99.90;;;;;;4991268;28;20539;-79
2023/11/20 06:54:28;;;;;;;21.92;2.65;;;10.50;99.90;;;;;;4973511;28;20049;-78
2023/11/20 06:56:54;;;;;;;18.05;3.28;;;10.50;99.90;;;;;;4992673;28;20493;-78
2023/11/20 06:59:20;;;;;;;16.90;2.78;;;10.50;99.90;;;;;;4995757;28;20387;-79
2023/11/20 07:01:47;;;;;;;23.65;3.17;;;10.50;99.90;;;;;;4988556;28;20041;-79
2023/11/20 07:04:18;;;;;;;21.48;3.28;;;10.50;99.90;;;;;;4995384;28;20472;-78
2023/11/20 07:06:44;;;;;;;27.08;3.35;;;10.50;99.90;;;;;;4996266;28;20037;-78
2023/11/20 07:09:14;;;;;;;27.77;8.05;;;10.50;99.90;;;;;;4995853;28;20038;-80
2023/11/20 07:11:41;;;;;;;27.25;5.53;;;10.50;99.90;;;;;;4992834;28;20022;-79
2023/11/20 07:14:08;;;;;;;28.77;4.32;;;10.50;99.90;;;;;;4993461;28;20132;-77
2023/11/20 07:16:36;;;;;;;19.33;3.17;;;10.50;99.90;;;;;;4975016;28;20417;-76
2023/11/20 07:19:02;;;;;;;18.10;3.25;;;10.50;99.90;;;;;;5004373;28;20041;-77
2023/11/20 07:21:29;;;;;;;29.75;3.60;;;10.50;99.90;;;;;;4987980;28;20037;-77
2023/11/20 07:23:57;;;;;;;30.08;4.22;;;10.50;99.90;;;;;;4993656;28;20033;-78
2023/11/20 07:26:25;;;;;;;15.65;2.45;;;10.50;99.90;;;;;;4978310;28;20483;-75
2023/11/20 07:28:52;;;;;;;31.08;4.95;;;10.50;99.90;;;;;;4977251;28;20049;-79
2023/11/20 07:31:28;;;;;;;24.25;3.50;;;10.50;99.90;;;;;;4978374;28;20068;-78
2023/11/20 07:33:54;;;;;;;17.67;3.10;;;10.50;99.90;;;;;;4997339;28;20056;-81
2023/11/20 07:36:21;;;;;;;17.23;2.85;;;10.40;99.90;;;;;;4992576;28;20041;-81
2023/11/20 07:38:47;;;;;;;19.65;3.03;;;10.40;99.90;;;;;;4964152;28;20026;-80
2023/11/20 07:41:14;;;;;;;26.58;3.53;;;10.30;99.90;;;;;;4993941;28;20029;-82
2023/11/20 07:43:41;;;;;;;19.73;3.25;;;10.30;99.90;;;;;;4991203;28;20419;-80
2023/11/20 07:46:09;;;;;;;23.98;2.83;;;10.30;99.90;;;;;;4959138;28;20682;-78
2023/11/20 07:48:35;;;;;;;21.27;3.63;;;10.40;99.90;;;;;;4992104;28;20042;-79
2023/11/20 07:51:02;;;;;;;20.20;2.70;;;10.40;99.90;;;;;;4992903;28;20539;-80
2023/11/20 07:53:28;;;;;;;31.73;4.78;;;10.40;99.90;;;;;;4993336;28;20045;-81
2023/11/20 07:55:55;;;;;;;34.95;4.50;;;10.40;99.90;;;;;;4990996;28;20037;-81
2023/11/20 07:58:21;;;;;;;20.70;3.00;;;10.50;99.90;;;;;;4994247;28;20038;-81
2023/11/20 08:00:48;;;;;;;18.98;3.00;;;10.50;99.90;;;;;;4991507;28;20037;-81
2023/11/20 08:03:14;;;;;;;23.50;3.80;;;10.50;99.90;;;;;;4993267;28;22971;-82
2023/11/20 08:05:44;;;;;;;22.45;3.92;;;10.50;99.90;;;;;;4994409;28;20034;-82
2023/11/20 08:08:12;;;;;;;32.70;4.63;;;10.60;99.90;;;;;;4977016;28;20157;-81
2023/11/20 08:10:40;;;;;;;26.95;4.85;;;10.60;99.90;;;;;;5001819;28;20030;-82
2023/11/20 08:13:07;;;;;;;30.58;4.95;;;10.60;99.90;;;;;;4972962;28;20040;-81
2023/11/20 08:15:33;;;;;;;42.72;7.63;;;10.70;99.90;;;;;;4991525;28;20481;-84
2023/11/20 08:18:00;;;;;;;25.80;5.85;;;10.70;99.90;;;;;;4977638;28;20029;-82
2023/11/20 08:20:26;;;;;;;28.60;7.28;;;10.70;99.90;;;;;;4979328;28;20029;-80
2023/11/20 08:22:53;;;;;;;38.55;6.50;;;10.70;99.90;;;;;;4978766;28;20049;-79
2023/11/20 08:25:19;;;;;;;28.83;4.85;;;10.60;99.90;;;;;;4993858;28;20041;-79
2023/11/20 08:27:45;;;;;;;23.13;3.60;;;10.60;99.90;;;;;;4976991;28;20484;-80
2023/11/20 08:30:12;;;;;;;22.70;3.40;;;10.50;99.90;;;;;;4988110;28;20042;-83
2023/11/20 08:32:38;;;;;;;27.15;4.03;;;10.50;99.90;;;;;;4993942;28;20033;-79
2023/11/20 08:35:05;;;;;;;21.73;3.15;;;10.50;99.90;;;;;;4993154;28;20477;-81
2023/11/20 08:37:32;;;;;;;27.10;4.97;;;10.50;99.90;;;;;;4988007;28;20412;-79
2023/11/20 08:39:59;;;;;;;28.30;5.53;;;10.60;99.90;;;;;;4994986;28;20038;-79
2023/11/20 08:42:26;;;;;;;24.48;4.57;;;10.60;99.90;;;;;;4992861;28;20539;-77
2023/11/20 08:44:55;;;;;;;21.42;3.55;;;10.60;99.90;;;;;;4991564;28;20042;-79
2023/11/20 08:47:22;;;;;;;19.80;3.08;;;10.60;99.90;;;;;;4992139;28;20042;-77
2023/11/20 08:49:51;;;;;;;31.55;4.50;;;10.70;99.90;;;;;;5001568;28;20034;-80
2023/11/20 08:52:18;;;;;;;29.30;4.07;;;10.70;99.90;;;;;;4974280;28;20041;-83
2023/11/20 08:54:44;;;;;;;34.58;4.20;;;10.70;99.90;;;;;;5005385;28;20412;-79
2023/11/20 08:57:10;;;;;;;30.98;5.28;;;10.70;99.90;;;;;;4989628;28;20044;-81
2023/11/20 08:59:37;;;;;;;31.05;5.07;;;10.70;99.90;;;;;;4990354;28;20045;-80
2023/11/20 09:02:03;;;;;;;28.25;4.70;;;10.70;99.90;;;;;;4991241;28;20037;-79
2023/11/20 09:04:29;;;;;;;29.08;4.43;;;10.70;99.90;;;;;;4974870;28;20041;-75
2023/11/20 09:06:56;;;;;;;27.80;4.82;;;10.80;99.90;;;;;;4974004;28;20057;-80
2023/11/20 09:09:22;;;;;;;30.98;4.80;;;10.80;99.90;;;;;;4993768;28;20034;-81
2023/11/20 09:11:49;;;;;;;33.63;6.30;;;10.80;99.90;;;;;;4991531;28;20761;-81
2023/11/20 09:14:16;;;;;;;27.60;4.25;;;10.80;99.90;;;;;;4992141;28;20041;-82
2023/11/20 09:16:43;;;;;;;30.70;4.60;;;10.80;99.90;;;;;;4992292;28;20030;-82
2023/11/20 09:19:10;;;;;;;31.85;4.88;;;10.90;99.90;;;;;;4979022;28;20041;-81
2023/11/20 09:21:36;;;;;;;30.58;4.85;;;10.90;99.90;;;;;;4996278;28;20051;-80
2023/11/20 09:24:03;;;;;;;33.72;5.95;;;10.90;99.90;;;;;;4995420;28;20041;-82
2023/11/20 09:26:29;;;;;;;37.88;4.85;;;11.00;99.90;;;;;;4962405;28;20028;-84
2023/11/20 09:28:55;;;;;;;35.83;5.18;;;11.00;99.90;;;;;;4965029;28;20042;-81
2023/11/20 09:31:22;;;;;;;25.08;5.05;;;11.00;99.90;;;;;;4954316;28;20382;-84
2023/11/20 09:33:50;;;;;;;41.25;5.72;;;11.00;99.90;;;;;;4993890;28;20038;-77
2023/11/20 09:36:19;;;;;;;30.00;4.50;;;11.00;99.90;;;;;;4994406;28;21854;-81
2023/11/20 09:38:46;;;;;;;29.17;4.00;;;11.00;99.90;;;;;;4996531;28;20563;-77
2023/11/20 09:41:12;;;;;;;30.15;5.80;;;11.00;99.90;;;;;;4960157;28;20034;-81
2023/11/20 09:43:39;;;;;;;29.48;5.20;;;11.00;99.90;;;;;;4995266;28;20038;-81
2023/11/20 09:46:07;;;;;;;37.45;6.03;;;11.00;99.90;;;;;;4995796;28;20056;-82
2023/11/20 09:48:36;;;;;;;27.52;4.88;;;11.00;99.90;;;;;;4980411;28;20481;-83
2023/11/20 09:51:05;;;;;;;28.15;5.45;;;11.00;99.90;;;;;;4996490;28;20040;-83
2023/11/20 09:53:35;;;;;;;27.15;4.75;;;11.00;99.90;;;;;;4977684;28;20037;-79
2023/11/20 09:56:03;;;;;;;21.60;4.50;;;11.10;99.90;;;;;;4960758;28;20042;-79
2023/11/20 09:58:33;;;;;;;26.45;5.00;;;11.10;99.90;;;;;;4962408;28;20033;-82
2023/11/20 10:01:06;;;;;;;29.50;6.05;;;11.20;99.90;;;;;;4979658;28;20511;-84
2023/11/20 10:03:37;;;;;;;25.98;5.93;;;11.20;99.90;;;;;;4990630;28;20395;-82
2023/11/20 10:06:15;;;;;;;38.03;6.43;;;11.40;99.90;;;;;;4992719;28;20031;-84
2023/11/20 10:08:48;;;;;;;26.17;5.72;;;11.50;99.90;;;;;;4994915;28;20034;-77
2023/11/20 10:11:21;;;;;;;24.60;5.15;;;11.70;99.90;;;;;;4995051;28;20036;-84
2023/11/20 10:13:48;;;;;;;20.08;4.53;;;11.90;99.90;;;;;;4994961;28;20049;-83
2023/11/20 10:16:26;;;;;;;26.55;5.03;;;12.20;99.90;;;;;;4992776;28;20161;-83
2023/11/20 10:18:53;;;;;;;16.27;4.47;;;12.40;99.90;;;;;;4994596;28;20029;-81
2023/11/20 10:21:20;;;;;;;23.95;6.07;;;12.40;99.90;;;;;;4995029;28;20605;-81
2023/11/20 10:23:54;;;;;;;16.67;4.28;;;12.50;99.90;;;;;;4998234;28;20041;-85
2023/11/20 10:26:24;;;;;;;17.70;4.57;;;12.50;99.90;;;;;;4977811;28;20034;-83
2023/11/20 10:28:54;;;;;;;16.67;4.07;;;12.40;99.90;;;;;;4996427;28;20029;-79
2023/11/20 10:31:23;;;;;;;21.60;4.50;;;12.40;99.90;;;;;;4991099;28;20030;-82
2023/11/20 10:34:10;;;;;;;25.75;5.63;;;12.40;99.90;;;;;;4994337;28;20038;-87
2023/11/20 10:36:38;;;;;;;24.13;6.75;;;12.40;99.90;;;;;;4993059;28;20041;-78
2023/11/20 10:39:07;;;;;;;23.88;6.10;;;12.40;99.90;;;;;;4969785;28;20041;-82
2023/11/20 10:41:39;;;;;;;24.45;6.28;;;12.30;99.90;;;;;;4956386;28;20400;-81
2023/11/20 10:44:05;;;;;;;25.33;6.93;;;12.10;99.90;;;;;;4993379;28;20392;-83
2023/11/20 10:46:32;;;;;;;18.60;5.63;;;11.90;99.90;;;;;;4962412;28;20042;-81
2023/11/20 10:49:06;;;;;;;18.42;6.20;;;11.70;99.90;;;;;;4996616;28;20041;-82
2023/11/20 10:51:36;;;;;;;20.40;6.90;;;11.60;99.90;;;;;;4993191;28;20037;-80
2023/11/20 10:54:14;;;;;;;27.30;8.05;;;11.50;99.90;;;;;;4995795;28;20540;-82
2023/11/20 10:56:43;;;;;;;20.17;7.10;;;11.40;99.90;;;;;;4987467;28;20056;-77
2023/11/20 10:59:12;;;;;;;19.02;7.25;;;11.40;99.90;;;;;;4981729;28;20045;-81
2023/11/20 11:01:40;;;;;;;31.98;9.75;;;11.40;99.90;;;;;;4977757;28;20081;-80
2023/11/20 11:04:08;;;;;;;25.58;8.25;;;11.30;99.90;;;;;;4997407;28;20052;-77
2023/11/20 11:06:42;;;;;;;29.92;10.38;;;11.40;99.90;;;;;;4969787;28;20053;-80
2023/11/20 11:09:12;;;;;;;23.83;9.95;;;11.50;99.90;;;;;;4978508;28;20034;-81
2023/11/20 11:11:40;;;;;;;35.08;11.77;;;11.60;99.90;;;;;;4992025;28;20037;-77
2023/11/20 11:14:06;;;;;;;29.15;10.35;;;11.70;99.90;;;;;;4988613;28;20396;-77
2023/11/20 11:16:43;;;;;;;37.28;11.68;;;11.80;99.90;;;;;;4968896;28;20034;-83
2023/11/20 11:19:16;;;;;;;26.48;12.05;;;12.00;99.90;;;;;;4994226;28;20025;-78
2023/11/20 11:21:45;;;;;;;26.55;11.18;;;12.10;99.90;;;;;;4994272;28;20393;-81
2023/11/20 11:24:14;;;;;;;30.13;11.50;;;12.10;99.90;;;;;;4997078;28;20052;-78
2023/11/20 11:27:00;;;;;;;29.35;9.25;;;12.20;99.90;;;;;;4966587;28;20038;-80
2023/11/20 11:29:31;;;;;;;32.63;10.65;;;12.20;99.90;;;;;;4979082;28;20052;-79
2023/11/20 11:32:07;;;;;;;19.02;8.63;;;12.10;99.90;;;;;;4994335;28;20037;-81
2023/11/20 11:35:01;;;;;;;24.45;9.40;;;12.00;99.90;;;;;;5003714;28;20037;-84
2023/11/20 11:37:32;;;;;;;29.77;9.90;;;12.10;99.90;;;;;;4985195;28;20477;-77
2023/11/20 11:40:09;;;;;;;31.05;11.32;;;12.20;99.90;;;;;;4958571;28;20469;-80
2023/11/20 11:42:47;;;;;;;25.73;9.57;;;12.30;99.90;;;;;;4996447;28;20022;-79
2023/11/20 11:45:17;;;;;;;23.35;10.40;;;12.40;99.90;;;;;;4994912;28;20456;-77
2023/11/20 11:47:45;;;;;;;24.08;10.25;;;12.50;99.90;;;;;;5004418;28;20474;-78
2023/11/20 11:50:15;;;;;;;17.38;8.43;;;12.50;99.90;;;;;;4992138;28;20025;-78
2023/11/20 11:52:42;;;;;;;23.23;9.68;;;12.40;99.90;;;;;;4975797;28;20060;-81
2023/11/20 11:55:19;;;;;;;18.85;7.97;;;12.40;99.90;;;;;;4994008;28;20034;-78
2023/11/20 11:57:52;;;;;;;18.33;8.38;;;12.40;99.90;;;;;;5004076;28;20042;-80
2023/11/20 12:00:22;;;;;;;26.98;8.38;;;12.40;99.90;;;;;;4975815;28;20045;-80
2023/11/20 12:03:08;;;;;;;21.75;7.85;;;12.50;99.90;;;;;;4995134;28;20041;-79
2023/11/20 12:06:11;;;;;;;19.25;7.05;;;12.50;99.90;;;;;;4978607;28;20038;-84
2023/11/20 12:08:38;;;;;;;30.70;8.32;;;12.40;99.90;;;;;;4996221;28;20033;-84
2023/11/20 12:11:04;;;;;;;18.45;6.32;;;12.30;99.90;;;;;;4995725;28;20026;-81
2023/11/20 12:13:31;;;;;;;21.58;6.78;;;12.20;99.90;;;;;;4978482;28;20048;-82
2023/11/20 12:16:03;;;;;;;14.82;5.28;;;12.20;99.90;;;;;;4975787;28;20038;-81
2023/11/20 12:18:34;;;;;;;18.77;5.13;;;12.20;99.90;;;;;;4993232;28;20551;-80
2023/11/20 12:21:10;;;;;;;19.52;6.00;;;12.20;99.90;;;;;;4996404;28;20041;-80
2023/11/20 12:23:44;;;;;;;11.38;4.10;;;12.10;99.90;;;;;;4989660;28;20034;-81
2023/11/20 12:26:12;;;;;;;17.55;4.60;;;12.20;99.90;;;;;;4973866;28;20037;-81
2023/11/20 12:28:40;;;;;;;15.43;5.00;;;12.20;99.90;;;;;;4989598;28;20524;-81
2023/11/20 12:31:11;;;;;;;18.02;4.95;;;12.20;99.90;;;;;;4993170;28;20037;-74
2023/11/20 12:33:39;;;;;;;19.05;4.13;;;12.30;99.90;;;;;;4992250;28;20477;-76
2023/11/20 12:36:07;;;;;;;14.43;3.53;;;12.40;99.90;;;;;;4966976;28;20049;-75
2023/11/20 12:38:36;;;;;;;19.27;4.43;;;12.50;99.90;;;;;;4978403;28;20037;-76
2023/11/20 12:41:06;;;;;;;20.73;4.28;;;12.60;99.90;;;;;;4991588;28;20034;-74